sensor_id;sensor_type;location;lat;lon;timestamp;pressure;altitude;pressure_sealevel;temperature;humidity
6565;BME280;3316;44.118;27.258;2023-04-30T00:02:07;100862.16;;;11.79;100.00
6565;BME280;3316;44.118;27.258;2023-04-30T00:04:32;100869.13;;;11.84;100.00
6565;BME280;3316;44.118;27.258;2023-04-30T00:06:58;100852.38;;;11.88;100.00
6565;BME280;3316;44.118;27.258;2023-04-30T00:09:23;100851.44;;;11.95;100.00
6565;BME280;3316;44.118;27.258;2023-04-30T00:11:49;100861.97;;;11.94;100.00
6565;BME280;3316;44.118;27.258;2023-04-30T00:14:14;100846.28;;;11.83;100.00
6565;BME280;3316;44.118;27.258;2023-04-30T00:16:40;100862.22;;;11.74;100.00
6565;BME280;3316;44.118;27.258;2023-04-30T00:19:06;100862.28;;;11.70;100.00
6565;BME280;3316;44.118;27.258;2023-04-30T00:21:32;100847.34;;;11.67;100.00
6565;BME280;3316;44.118;27.258;2023-04-30T00:23:58;100864.78;;;11.82;100.00
6565;BME280;3316;44.118;27.258;2023-04-30T00:26:26;100863.88;;;11.83;100.00
6565;BME280;3316;44.118;27.258;2023-04-30T00:28:52;100827.97;;;11.71;100.00
6565;BME280;3316;44.118;27.258;2023-04-30T00:31:17;100866.50;;;11.86;100.00
6565;BME280;3316;44.118;27.258;2023-04-30T00:33:42;100858.63;;;11.78;100.00
6565;BME280;3316;44.118;27.258;2023-04-30T00:36:08;100866.38;;;11.92;100.00
6565;BME280;3316;44.118;27.258;2023-04-30T00:38:34;100870.06;;;11.82;100.00
6565;BME280;3316;44.118;27.258;2023-04-30T00:40:59;100829.00;;;11.55;100.00
6565;BME280;3316;44.118;27.258;2023-04-30T00:43:25;100864.84;;;11.76;100.00
6565;BME280;3316;44.118;27.258;2023-04-30T00:45:50;100864.03;;;11.69;100.00
6565;BME280;3316;44.118;27.258;2023-04-30T00:48:16;100845.69;;;11.58;100.00
6565;BME280;3316;44.118;27.258;2023-04-30T00:50:42;100830.94;;;11.41;100.00
6565;BME280;3316;44.118;27.258;2023-04-30T00:53:09;100869.41;;;11.57;100.00
6565;BME280;3316;44.118;27.258;2023-04-30T00:55:35;100840.53;;;11.45;100.00
6565;BME280;3316;44.118;27.258;2023-04-30T00:58:00;100857.16;;;11.54;100.00
6565;BME280;3316;44.118;27.258;2023-04-30T01:00:26;100857.94;;;11.61;100.00
6565;BME280;3316;44.118;27.258;2023-04-30T01:02:52;100811.63;;;11.37;100.00
6565;BME280;3316;44.118;27.258;2023-04-30T01:05:18;100850.94;;;11.60;100.00
6565;BME280;3316;44.118;27.258;2023-04-30T01:07:44;100841.34;;;11.51;100.00
6565;BME280;3316;44.118;27.258;2023-04-30T01:10:14;100826.59;;;11.35;100.00
6565;BME280;3316;44.118;27.258;2023-04-30T01:18:17;100838.88;;;11.36;100.00
6565;BME280;3316;44.118;27.258;2023-04-30T01:20:53;100838.94;;;11.30;100.00
6565;BME280;3316;44.118;27.258;2023-04-30T01:23:47;100827.69;;;11.15;100.00
6565;BME280;3316;44.118;27.258;2023-04-30T01:28:52;100789.28;;;10.93;100.00
6565;BME280;3316;44.118;27.258;2023-04-30T01:31:19;100819.94;;;10.98;100.00
6565;BME280;3316;44.118;27.258;2023-04-30T01:33:44;100796.44;;;10.77;100.00
6565;BME280;3316;44.118;27.258;2023-04-30T01:46:39;100809.03;;;10.36;100.00
6565;BME280;3316;44.118;27.258;2023-04-30T01:52:16;100809.09;;;10.22;100.00
6565;BME280;3316;44.118;27.258;2023-04-30T01:54:51;100799.50;;;10.17;100.00
6565;BME280;3316;44.118;27.258;2023-04-30T01:57:42;100809.16;;;10.16;100.00
6565;BME280;3316;44.118;27.258;2023-04-30T02:00:09;100812.69;;;10.06;100.00
6565;BME280;3316;44.118;27.258;2023-04-30T02:02:35;100784.72;;;9.93;100.00
6565;BME280;3316;44.118;27.258;2023-04-30T02:05:01;100769.91;;;9.75;100.00
6565;BME280;3316;44.118;27.258;2023-04-30T02:07:38;100796.97;;;9.96;100.00
6565;BME280;3316;44.118;27.258;2023-04-30T02:10:06;100806.63;;;9.89;100.00
6565;BME280;3316;44.118;27.258;2023-04-30T02:12:31;100801.34;;;10.00;100.00
6565;BME280;3316;44.118;27.258;2023-04-30T02:14:57;100805.72;;;10.02;100.00
6565;BME280;3316;44.118;27.258;2023-04-30T02:17:22;100792.59;;;9.92;100.00
6565;BME280;3316;44.118;27.258;2023-04-30T02:19:47;100789.16;;;9.83;100.00
6565;BME280;3316;44.118;27.258;2023-04-30T02:22:13;100791.88;;;9.65;100.00
6565;BME280;3316;44.118;27.258;2023-04-30T02:24:39;100812.00;;;9.65;100.00
6565;BME280;3316;44.118;27.258;2023-04-30T02:27:04;100809.34;;;9.71;100.00
6565;BME280;3316;44.118;27.258;2023-04-30T02:29:30;100793.59;;;9.72;100.00
6565;BME280;3316;44.118;27.258;2023-04-30T02:31:58;100804.94;;;9.80;100.00
6565;BME280;3316;44.118;27.258;2023-04-30T02:34:24;100809.31;;;9.75;100.00
6565;BME280;3316;44.118;27.258;2023-04-30T02:36:50;100817.19;;;9.84;100.00
6565;BME280;3316;44.118;27.258;2023-04-30T02:39:15;100809.28;;;9.87;100.00
6565;BME280;3316;44.118;27.258;2023-04-30T02:41:41;100808.44;;;9.79;100.00
6565;BME280;3316;44.118;27.258;2023-04-30T02:44:06;100816.31;;;9.79;100.00
6565;BME280;3316;44.118;27.258;2023-04-30T02:46:32;100812.81;;;9.80;100.00
6565;BME280;3316;44.118;27.258;2023-04-30T02:48:57;100811.06;;;9.82;100.00
6565;BME280;3316;44.118;27.258;2023-04-30T02:51:22;100805.75;;;9.90;100.00
6565;BME280;3316;44.118;27.258;2023-04-30T02:53:48;100819.81;;;9.81;100.00
6565;BME280;3316;44.118;27.258;2023-04-30T02:56:14;100805.84;;;9.70;100.00
6565;BME280;3316;44.118;27.258;2023-04-30T02:58:39;100789.25;;;9.65;100.00
6565;BME280;3316;44.118;27.258;2023-04-30T03:01:05;100810.25;;;9.64;100.00
6565;BME280;3316;44.118;27.258;2023-04-30T03:03:30;100816.41;;;9.63;100.00
6565;BME280;3316;44.118;27.258;2023-04-30T03:05:56;100824.22;;;9.73;100.00
6565;BME280;3316;44.118;27.258;2023-04-30T03:08:24;100831.25;;;9.64;100.00
6565;BME280;3316;44.118;27.258;2023-04-30T03:10:49;100825.16;;;9.56;100.00
6565;BME280;3316;44.118;27.258;2023-04-30T03:13:15;100814.69;;;9.53;100.00
6565;BME280;3316;44.118;27.258;2023-04-30T03:15:40;100822.56;;;9.51;100.00
6565;BME280;3316;44.118;27.258;2023-04-30T03:18:05;100830.44;;;9.50;100.00
6565;BME280;3316;44.118;27.258;2023-04-30T03:20:31;100826.91;;;9.57;100.00
6565;BME280;3316;44.118;27.258;2023-04-30T03:22:56;100830.41;;;9.56;100.00
6565;BME280;3316;44.118;27.258;2023-04-30T03:25:22;100829.50;;;9.67;100.00
6565;BME280;3316;44.118;27.258;2023-04-30T03:27:47;100840.91;;;9.65;100.00
6565;BME280;3316;44.118;27.258;2023-04-30T03:30:16;100845.22;;;9.79;100.00
6565;BME280;3316;44.118;27.258;2023-04-30T03:32:41;100845.06;;;10.20;100.00
6565;BME280;3316;44.118;27.258;2023-04-30T03:35:07;100837.06;;;10.41;100.00
6565;BME280;3316;44.118;27.258;2023-04-30T03:37:32;100839.41;;;10.82;100.00
6565;BME280;3316;44.118;27.258;2023-04-30T03:39:58;100842.56;;;11.19;100.00
6565;BME280;3316;44.118;27.258;2023-04-30T03:42:24;100841.59;;;11.30;100.00
6565;BME280;3316;44.118;27.258;2023-04-30T03:44:49;100839.94;;;11.16;100.00
6565;BME280;3316;44.118;27.258;2023-04-30T03:47:15;100856.81;;;10.95;100.00
6565;BME280;3316;44.118;27.258;2023-04-30T03:49:40;100854.22;;;10.91;100.00
6565;BME280;3316;44.118;27.258;2023-04-30T03:52:06;100856.88;;;10.89;100.00
6565;BME280;3316;44.118;27.258;2023-04-30T03:54:31;100861.25;;;10.89;100.00
6565;BME280;3316;44.118;27.258;2023-04-30T03:56:58;100812.72;;;11.18;100.00
6565;BME280;3316;44.118;27.258;2023-04-30T03:59:24;100847.91;;;11.95;100.00
6565;BME280;3316;44.118;27.258;2023-04-30T04:01:50;100849.09;;;12.38;98.99
6565;BME280;3316;44.118;27.258;2023-04-30T04:04:15;100849.44;;;12.73;95.33
6565;BME280;3316;44.118;27.258;2023-04-30T04:06:41;100859.63;;;13.48;90.56
6565;BME280;3316;44.118;27.258;2023-04-30T04:09:07;100868.81;;;14.58;82.95
6565;BME280;3316;44.118;27.258;2023-04-30T04:11:32;100869.13;;;15.52;74.50
6565;BME280;3316;44.118;27.258;2023-04-30T04:13:58;100868.66;;;16.30;69.03
6565;BME280;3316;44.118;27.258;2023-04-30T04:16:24;100871.22;;;16.89;63.32
6565;BME280;3316;44.118;27.258;2023-04-30T04:18:50;100883.22;;;17.55;60.27
6565;BME280;3316;44.118;27.258;2023-04-30T04:21:15;100887.16;;;17.93;57.10
6565;BME280;3316;44.118;27.258;2023-04-30T04:23:41;100879.44;;;18.79;54.18
6565;BME280;3316;44.118;27.258;2023-04-30T04:26:06;100882.25;;;19.39;51.80
6565;BME280;3316;44.118;27.258;2023-04-30T04:28:32;100887.78;;;20.15;49.11
6565;BME280;3316;44.118;27.258;2023-04-30T04:30:57;100895.72;;;20.74;47.59
6565;BME280;3316;44.118;27.258;2023-04-30T04:33:23;100897.13;;;21.18;46.03
6565;BME280;3316;44.118;27.258;2023-04-30T04:35:49;100890.00;;;21.53;44.49
6565;BME280;3316;44.118;27.258;2023-04-30T04:38:14;100896.25;;;21.88;43.04
6565;BME280;3316;44.118;27.258;2023-04-30T04:40:40;100904.41;;;22.35;41.92
6565;BME280;3316;44.118;27.258;2023-04-30T04:43:05;100910.13;;;22.92;39.98
6565;BME280;3316;44.118;27.258;2023-04-30T04:45:31;100908.66;;;23.02;39.81
6565;BME280;3316;44.118;27.258;2023-04-30T04:47:57;100903.47;;;22.99;39.76
6565;BME280;3316;44.118;27.258;2023-04-30T04:50:23;100899.72;;;23.33;40.39
6565;BME280;3316;44.118;27.258;2023-04-30T04:52:48;100905.94;;;23.93;39.60
6565;BME280;3316;44.118;27.258;2023-04-30T04:55:14;100915.31;;;24.44;38.60
6565;BME280;3316;44.118;27.258;2023-04-30T04:57:40;100909.03;;;24.86;36.99
6565;BME280;3316;44.118;27.258;2023-04-30T05:00:07;100849.94;;;24.56;36.60
6565;BME280;3316;44.118;27.258;2023-04-30T05:02:34;100915.97;;;25.57;35.27
6565;BME280;3316;44.118;27.258;2023-04-30T05:04:59;100901.34;;;25.99;33.97
6565;BME280;3316;44.118;27.258;2023-04-30T05:07:25;100918.53;;;26.35;33.18
6565;BME280;3316;44.118;27.258;2023-04-30T05:09:51;100914.75;;;26.25;32.14
6565;BME280;3316;44.118;27.258;2023-04-30T05:12:16;100908.84;;;26.33;32.11
6565;BME280;3316;44.118;27.258;2023-04-30T05:14:42;100932.34;;;26.56;31.86
6565;BME280;3316;44.118;27.258;2023-04-30T05:17:08;100931.63;;;27.26;29.33
6565;BME280;3316;44.118;27.258;2023-04-30T05:19:33;100930.44;;;27.54;29.50
6565;BME280;3316;44.118;27.258;2023-04-30T05:21:59;100930.88;;;27.72;28.92
6565;BME280;3316;44.118;27.258;2023-04-30T05:24:26;100927.47;;;28.15;28.49
6565;BME280;3316;44.118;27.258;2023-04-30T05:26:52;100931.53;;;27.52;30.11
6565;BME280;3316;44.118;27.258;2023-04-30T05:29:17;100926.31;;;27.72;27.31
6565;BME280;3316;44.118;27.258;2023-04-30T05:31:43;100907.97;;;26.94;29.32
6565;BME280;3316;44.118;27.258;2023-04-30T05:34:08;100916.56;;;26.50;29.47
6565;BME280;3316;44.118;27.258;2023-04-30T05:36:33;100914.50;;;26.66;29.23
6565;BME280;3316;44.118;27.258;2023-04-30T05:38:59;100932.47;;;27.27;28.04
6565;BME280;3316;44.118;27.258;2023-04-30T05:41:24;100936.56;;;27.80;27.75
6565;BME280;3316;44.118;27.258;2023-04-30T05:43:50;100926.91;;;27.65;28.10
6565;BME280;3316;44.118;27.258;2023-04-30T05:46:15;100936.09;;;27.86;27.04
6565;BME280;3316;44.118;27.258;2023-04-30T05:48:41;100934.72;;;27.80;27.00
6565;BME280;3316;44.118;27.258;2023-04-30T05:51:06;100936.09;;;27.51;26.82
6565;BME280;3316;44.118;27.258;2023-04-30T05:53:32;100937.03;;;27.26;26.99
6565;BME280;3316;44.118;27.258;2023-04-30T05:55:57;100931.81;;;26.13;28.40
6565;BME280;3316;44.118;27.258;2023-04-30T05:58:23;100936.34;;;26.13;28.35
6565;BME280;3316;44.118;27.258;2023-04-30T06:00:49;100935.78;;;25.56;29.01
6565;BME280;3316;44.118;27.258;2023-04-30T06:03:16;100936.41;;;25.47;30.17
6565;BME280;3316;44.118;27.258;2023-04-30T06:05:41;100928.72;;;25.80;30.61
6565;BME280;3316;44.118;27.258;2023-04-30T06:08:08;100940.81;;;25.87;30.20
6565;BME280;3316;44.118;27.258;2023-04-30T06:10:34;100943.91;;;25.42;30.47
6565;BME280;3316;44.118;27.258;2023-04-30T06:12:59;100913.53;;;24.99;30.62
6565;BME280;3316;44.118;27.258;2023-04-30T06:15:24;100926.38;;;23.96;32.07
6565;BME280;3316;44.118;27.258;2023-04-30T06:17:50;100918.91;;;23.26;32.66
6565;BME280;3316;44.118;27.258;2023-04-30T06:20:15;100945.00;;;22.92;33.67
6565;BME280;3316;44.118;27.258;2023-04-30T06:22:41;100941.44;;;22.44;34.44
6565;BME280;3316;44.118;27.258;2023-04-30T06:25:07;100938.94;;;21.91;34.99
6565;BME280;3316;44.118;27.258;2023-04-30T06:27:32;100930.53;;;21.46;35.65
6565;BME280;3316;44.118;27.258;2023-04-30T06:29:58;100941.59;;;21.21;36.69
6565;BME280;3316;44.118;27.258;2023-04-30T06:32:25;100938.63;;;21.08;36.74
6565;BME280;3316;44.118;27.258;2023-04-30T06:34:50;100933.59;;;20.65;37.74
6565;BME280;3316;44.118;27.258;2023-04-30T06:37:16;100932.84;;;20.62;37.52
6565;BME280;3316;44.118;27.258;2023-04-30T06:39:41;100926.25;;;20.31;38.34
6565;BME280;3316;44.118;27.258;2023-04-30T06:42:07;100934.59;;;20.04;38.86
6565;BME280;3316;44.118;27.258;2023-04-30T06:44:32;100930.59;;;20.14;38.09
6565;BME280;3316;44.118;27.258;2023-04-30T06:46:57;100929.66;;;20.15;36.82
6565;BME280;3316;44.118;27.258;2023-04-30T06:49:23;100906.81;;;20.08;37.08
6565;BME280;3316;44.118;27.258;2023-04-30T06:51:48;100926.25;;;20.31;36.78
6565;BME280;3316;44.118;27.258;2023-04-30T06:54:14;100898.88;;;20.26;35.82
6565;BME280;3316;44.118;27.258;2023-04-30T06:56:40;100929.69;;;20.54;36.27
6565;BME280;3316;44.118;27.258;2023-04-30T06:59:05;100931.84;;;20.64;36.57
6565;BME280;3316;44.118;27.258;2023-04-30T07:01:30;100923.91;;;20.63;36.85
6565;BME280;3316;44.118;27.258;2023-04-30T07:03:56;100928.38;;;20.62;37.83
6565;BME280;3316;44.118;27.258;2023-04-30T07:06:21;100912.19;;;20.47;38.09
6565;BME280;3316;44.118;27.258;2023-04-30T07:08:47;100933.44;;;20.50;38.15
6565;BME280;3316;44.118;27.258;2023-04-30T07:11:13;100923.50;;;20.33;38.36
6565;BME280;3316;44.118;27.258;2023-04-30T07:13:38;100920.38;;;20.23;39.02
6565;BME280;3316;44.118;27.258;2023-04-30T07:16:04;100925.63;;;20.26;39.24
6565;BME280;3316;44.118;27.258;2023-04-30T07:18:30;100935.44;;;20.26;40.20
6565;BME280;3316;44.118;27.258;2023-04-30T07:20:55;100937.22;;;20.25;40.13
6565;BME280;3316;44.118;27.258;2023-04-30T07:23:21;100931.13;;;20.42;39.47
6565;BME280;3316;44.118;27.258;2023-04-30T07:25:46;100927.59;;;20.21;37.32
6565;BME280;3316;44.118;27.258;2023-04-30T07:28:12;100916.22;;;20.36;37.51
6565;BME280;3316;44.118;27.258;2023-04-30T07:30:37;100926.41;;;20.66;37.48
6565;BME280;3316;44.118;27.258;2023-04-30T07:33:03;100925.50;;;20.67;37.42
6565;BME280;3316;44.118;27.258;2023-04-30T07:35:29;100924.38;;;20.52;37.79
6565;BME280;3316;44.118;27.258;2023-04-30T07:37:55;100915.53;;;20.52;38.24
6565;BME280;3316;44.118;27.258;2023-04-30T07:40:20;100920.66;;;20.75;37.86
6565;BME280;3316;44.118;27.258;2023-04-30T07:42:46;100917.25;;;20.71;37.81
6565;BME280;3316;44.118;27.258;2023-04-30T07:45:11;100929.97;;;20.85;37.84
6565;BME280;3316;44.118;27.258;2023-04-30T07:47:37;100927.78;;;20.93;38.23
6565;BME280;3316;44.118;27.258;2023-04-30T07:50:03;100907.78;;;20.83;37.89
6565;BME280;3316;44.118;27.258;2023-04-30T07:52:28;100928.97;;;21.06;38.13
6565;BME280;3316;44.118;27.258;2023-04-30T07:54:54;100927.22;;;21.05;38.10
6565;BME280;3316;44.118;27.258;2023-04-30T07:57:19;100933.00;;;20.77;38.14
6565;BME280;3316;44.118;27.258;2023-04-30T07:59:45;100927.22;;;20.68;39.03
6565;BME280;3316;44.118;27.258;2023-04-30T08:02:10;100923.84;;;21.01;39.06
6565;BME280;3316;44.118;27.258;2023-04-30T08:04:36;100927.47;;;20.99;38.53
6565;BME280;3316;44.118;27.258;2023-04-30T08:07:02;100926.78;;;21.14;38.42
6565;BME280;3316;44.118;27.258;2023-04-30T08:09:28;100931.28;;;21.13;38.92
6565;BME280;3316;44.118;27.258;2023-04-30T08:11:54;100917.56;;;21.02;38.40
6565;BME280;3316;44.118;27.258;2023-04-30T08:14:19;100915.91;;;21.36;38.38
6565;BME280;3316;44.118;27.258;2023-04-30T08:16:46;100921.56;;;21.30;37.89
6565;BME280;3316;44.118;27.258;2023-04-30T08:19:11;100910.53;;;21.36;38.37
6565;BME280;3316;44.118;27.258;2023-04-30T08:21:37;100905.03;;;21.39;37.88
6565;BME280;3316;44.118;27.258;2023-04-30T08:24:03;100917.22;;;21.27;37.48
6565;BME280;3316;44.118;27.258;2023-04-30T08:26:28;100911.22;;;21.22;37.71
6565;BME280;3316;44.118;27.258;2023-04-30T08:28:53;100916.41;;;21.25;36.52
6565;BME280;3316;44.118;27.258;2023-04-30T08:31:19;100899.84;;;21.36;36.49
6565;BME280;3316;44.118;27.258;2023-04-30T08:33:45;100908.56;;;21.39;36.30
6565;BME280;3316;44.118;27.258;2023-04-30T08:36:10;100902.44;;;21.37;35.52
6565;BME280;3316;44.118;27.258;2023-04-30T08:38:35;100902.50;;;21.36;35.66
6565;BME280;3316;44.118;27.258;2023-04-30T08:41:11;100895.97;;;21.75;36.11
6565;BME280;3316;44.118;27.258;2023-04-30T08:43:39;100898.19;;;21.50;35.60
6565;BME280;3316;44.118;27.258;2023-04-30T08:46:05;100905.19;;;21.87;36.35
6565;BME280;3316;44.118;27.258;2023-04-30T08:48:31;100901.59;;;22.21;35.60
6565;BME280;3316;44.118;27.258;2023-04-30T08:51:00;100902.34;;;22.07;35.20
6565;BME280;3316;44.118;27.258;2023-04-30T08:53:26;100901.19;;;21.78;33.26
6565;BME280;3316;44.118;27.258;2023-04-30T08:55:52;100910.06;;;21.79;33.92
6565;BME280;3316;44.118;27.258;2023-04-30T08:58:17;100903.84;;;21.44;34.87
6565;BME280;3316;44.118;27.258;2023-04-30T09:00:43;100901.56;;;21.37;34.26
6565;BME280;3316;44.118;27.258;2023-04-30T09:03:08;100904.88;;;21.59;33.53
6565;BME280;3316;44.118;27.258;2023-04-30T09:05:35;100898.75;;;21.40;32.69
6565;BME280;3316;44.118;27.258;2023-04-30T09:08:01;100886.19;;;21.40;32.44
6565;BME280;3316;44.118;27.258;2023-04-30T09:10:26;100905.66;;;21.78;33.24
6565;BME280;3316;44.118;27.258;2023-04-30T09:13:03;100896.13;;;22.06;32.25
6565;BME280;3316;44.118;27.258;2023-04-30T09:15:30;100881.50;;;22.12;32.04
6565;BME280;3316;44.118;27.258;2023-04-30T09:18:16;100884.69;;;22.51;32.54
6565;BME280;3316;44.118;27.258;2023-04-30T09:20:59;100886.34;;;22.38;31.03
6565;BME280;3316;44.118;27.258;2023-04-30T09:23:28;100883.06;;;22.33;31.67
6565;BME280;3316;44.118;27.258;2023-04-30T09:25:54;100887.56;;;22.00;31.17
6565;BME280;3316;44.118;27.258;2023-04-30T09:28:21;100895.72;;;21.80;30.68
6565;BME280;3316;44.118;27.258;2023-04-30T09:30:55;100855.41;;;21.83;30.81
6565;BME280;3316;44.118;27.258;2023-04-30T09:33:21;100884.31;;;22.59;30.31
6565;BME280;3316;44.118;27.258;2023-04-30T09:35:46;100884.16;;;22.62;30.53
6565;BME280;3316;44.118;27.258;2023-04-30T09:38:28;100879.47;;;22.65;31.31
6565;BME280;3316;44.118;27.258;2023-04-30T09:40:54;100879.13;;;23.02;31.28
6565;BME280;3316;44.118;27.258;2023-04-30T09:43:19;100844.59;;;22.96;31.39
6565;BME280;3316;44.118;27.258;2023-04-30T09:45:46;100872.84;;;23.33;32.01
6565;BME280;3316;44.118;27.258;2023-04-30T09:48:19;100864.63;;;23.21;31.65
6565;BME280;3316;44.118;27.258;2023-04-30T09:50:45;100861.03;;;22.75;32.32
6565;BME280;3316;44.118;27.258;2023-04-30T09:53:14;100867.44;;;22.88;33.17
6565;BME280;3316;44.118;27.258;2023-04-30T09:55:43;100857.88;;;23.14;32.36
6565;BME280;3316;44.118;27.258;2023-04-30T09:58:10;100863.22;;;22.99;32.29
6565;BME280;3316;44.118;27.258;2023-04-30T10:00:36;100863.13;;;22.85;32.91
6565;BME280;3316;44.118;27.258;2023-04-30T10:03:07;100854.75;;;22.76;33.72
6565;BME280;3316;44.118;27.258;2023-04-30T10:05:40;100858.25;;;22.76;33.60
6565;BME280;3316;44.118;27.258;2023-04-30T10:08:14;100865.19;;;22.96;33.98
6565;BME280;3316;44.118;27.258;2023-04-30T10:10:44;100851.53;;;22.85;34.31
6565;BME280;3316;44.118;27.258;2023-04-30T10:13:14;100854.00;;;22.88;33.62
6565;BME280;3316;44.118;27.258;2023-04-30T10:15:49;100844.00;;;22.76;33.12
6565;BME280;3316;44.118;27.258;2023-04-30T10:18:41;100856.78;;;22.86;33.34
6565;BME280;3316;44.118;27.258;2023-04-30T10:21:11;100861.66;;;22.95;32.72
6565;BME280;3316;44.118;27.258;2023-04-30T10:23:39;100856.31;;;23.10;32.96
6565;BME280;3316;44.118;27.258;2023-04-30T10:26:11;100850.59;;;23.16;33.29
6565;BME280;3316;44.118;27.258;2023-04-30T10:28:37;100831.03;;;22.84;33.86
6565;BME280;3316;44.118;27.258;2023-04-30T10:31:05;100845.88;;;23.05;33.62
6565;BME280;3316;44.118;27.258;2023-04-30T10:33:36;100849.19;;;23.40;33.67
6565;BME280;3316;44.118;27.258;2023-04-30T10:36:12;100843.19;;;23.64;32.76
6565;BME280;3316;44.118;27.258;2023-04-30T10:42:05;100839.72;;;23.03;33.79
6565;BME280;3316;44.118;27.258;2023-04-30T10:44:37;100832.06;;;22.81;33.65
6565;BME280;3316;44.118;27.258;2023-04-30T10:47:04;100834.22;;;22.59;33.72
6565;BME280;3316;44.118;27.258;2023-04-30T10:49:30;100822.97;;;22.53;33.88
6565;BME280;3316;44.118;27.258;2023-04-30T10:52:01;100824.38;;;22.60;33.75
6565;BME280;3316;44.118;27.258;2023-04-30T10:54:35;100830.56;;;22.91;32.67
6565;BME280;3316;44.118;27.258;2023-04-30T10:57:14;100785.81;;;22.76;33.68
6565;BME280;3316;44.118;27.258;2023-04-30T10:59:53;100829.03;;;22.72;33.73
6565;BME280;3316;44.118;27.258;2023-04-30T11:02:45;100821.56;;;22.46;34.80
6565;BME280;3316;44.118;27.258;2023-04-30T11:05:13;100840.66;;;22.24;34.50
6565;BME280;3316;44.118;27.258;2023-04-30T11:08:05;100832.63;;;22.40;34.23
6565;BME280;3316;44.118;27.258;2023-04-30T11:10:35;100834.53;;;22.53;34.29
6565;BME280;3316;44.118;27.258;2023-04-30T11:13:06;100832.75;;;22.69;33.84
6565;BME280;3316;44.118;27.258;2023-04-30T11:15:39;100819.13;;;22.88;33.53
6565;BME280;3316;44.118;27.258;2023-04-30T11:18:06;100831.03;;;23.14;33.49
6565;BME280;3316;44.118;27.258;2023-04-30T11:20:32;100832.38;;;23.07;33.08
6565;BME280;3316;44.118;27.258;2023-04-30T11:23:11;100792.69;;;22.82;33.77
6565;BME280;3316;44.118;27.258;2023-04-30T11:25:44;100825.03;;;22.94;34.36
6565;BME280;3316;44.118;27.258;2023-04-30T11:28:18;100811.63;;;22.79;34.02
6565;BME280;3316;44.118;27.258;2023-04-30T11:30:54;100815.78;;;22.69;35.58
6565;BME280;3316;44.118;27.258;2023-04-30T11:33:21;100826.19;;;22.59;35.84
6565;BME280;3316;44.118;27.258;2023-04-30T11:35:48;100799.84;;;22.50;36.24
6565;BME280;3316;44.118;27.258;2023-04-30T11:38:18;100815.34;;;22.76;36.51
6565;BME280;3316;44.118;27.258;2023-04-30T11:40:45;100815.69;;;22.70;35.60
6565;BME280;3316;44.118;27.258;2023-04-30T11:43:27;100818.13;;;22.59;34.51
6565;BME280;3316;44.118;27.258;2023-04-30T11:48:31;100813.38;;;22.64;36.07
6565;BME280;3316;44.118;27.258;2023-04-30T11:50:57;100817.09;;;22.62;36.55
6565;BME280;3316;44.118;27.258;2023-04-30T11:53:26;100808.50;;;22.71;36.04
6565;BME280;3316;44.118;27.258;2023-04-30T11:55:53;100812.94;;;22.87;35.16
6565;BME280;3316;44.118;27.258;2023-04-30T11:58:20;100807.84;;;22.67;34.74
6565;BME280;3316;44.118;27.258;2023-04-30T12:00:45;100811.03;;;22.43;34.71
6565;BME280;3316;44.118;27.258;2023-04-30T12:03:13;100803.16;;;22.71;35.51
6565;BME280;3316;44.118;27.258;2023-04-30T12:05:40;100806.50;;;22.90;35.67
6565;BME280;3316;44.118;27.258;2023-04-30T12:08:07;100801.91;;;22.92;35.29
6565;BME280;3316;44.118;27.258;2023-04-30T12:10:34;100798.44;;;22.90;35.65
6565;BME280;3316;44.118;27.258;2023-04-30T12:12:59;100806.84;;;22.99;35.17
6565;BME280;3316;44.118;27.258;2023-04-30T12:15:25;100795.63;;;22.77;34.88
6565;BME280;3316;44.118;27.258;2023-04-30T12:17:53;100790.25;;;22.77;35.68
6565;BME280;3316;44.118;27.258;2023-04-30T12:20:20;100787.03;;;22.86;35.25
6565;BME280;3316;44.118;27.258;2023-04-30T12:22:49;100794.59;;;23.10;34.71
6565;BME280;3316;44.118;27.258;2023-04-30T12:25:16;100803.31;;;23.29;34.27
6565;BME280;3316;44.118;27.258;2023-04-30T12:27:47;100795.88;;;23.48;34.52
6565;BME280;3316;44.118;27.258;2023-04-30T12:30:13;100793.69;;;23.68;34.80
6565;BME280;3316;44.118;27.258;2023-04-30T12:32:44;100788.78;;;23.33;35.92
6565;BME280;3316;44.118;27.258;2023-04-30T12:35:18;100793.94;;;22.90;35.59
6565;BME280;3316;44.118;27.258;2023-04-30T12:37:46;100782.28;;;22.91;35.24
6565;BME280;3316;44.118;27.258;2023-04-30T12:40:12;100794.91;;;23.19;35.17
6565;BME280;3316;44.118;27.258;2023-04-30T12:42:41;100784.16;;;23.05;34.14
6565;BME280;3316;44.118;27.258;2023-04-30T12:45:08;100775.06;;;22.92;35.04
6565;BME280;3316;44.118;27.258;2023-04-30T12:47:40;100785.81;;;22.92;34.86
6565;BME280;3316;44.118;27.258;2023-04-30T12:50:11;100777.19;;;22.56;34.48
6565;BME280;3316;44.118;27.258;2023-04-30T12:52:38;100777.13;;;22.57;34.97
6565;BME280;3316;44.118;27.258;2023-04-30T12:55:18;100775.91;;;22.63;34.92
6565;BME280;3316;44.118;27.258;2023-04-30T12:58:09;100767.34;;;22.72;35.01
6565;BME280;3316;44.118;27.258;2023-04-30T13:00:48;100772.06;;;22.82;35.07
6565;BME280;3316;44.118;27.258;2023-04-30T13:03:16;100771.13;;;22.83;35.22
6565;BME280;3316;44.118;27.258;2023-04-30T13:05:45;100763.84;;;22.85;34.81
6565;BME280;3316;44.118;27.258;2023-04-30T13:08:12;100766.44;;;22.87;35.25
6565;BME280;3316;44.118;27.258;2023-04-30T13:10:38;100752.34;;;22.83;34.81
6565;BME280;3316;44.118;27.258;2023-04-30T13:13:03;100743.53;;;23.11;34.83
6565;BME280;3316;44.118;27.258;2023-04-30T13:15:29;100759.34;;;23.16;34.66
6565;BME280;3316;44.118;27.258;2023-04-30T13:17:55;100761.34;;;23.12;34.81
6565;BME280;3316;44.118;27.258;2023-04-30T13:20:20;100756.69;;;23.00;35.19
6565;BME280;3316;44.118;27.258;2023-04-30T13:22:46;100760.00;;;23.19;35.22
6565;BME280;3316;44.118;27.258;2023-04-30T13:25:11;100760.47;;;23.41;34.39
6565;BME280;3316;44.118;27.258;2023-04-30T13:27:37;100754.44;;;23.38;35.05